Time;durP1;ratioP1;P1;durP2;ratioP2;P2;SDS_P1;SDS_P2;PMS_P1;PMS_P2;Temp;Humidity;BMP_temperature;BMP_pressure;BME280_temperature;BME280_humidity;BME280_pressure;Samples;Min_cycle;Max_cycle;Signal;HPM_P1;HPM_P2
2024/01/11 00:01:18;;;;;;;;;55.50;45.00;;;;;;;;5031588;28;28576;-83
2024/01/11 00:03:43;;;;;;;;;46.75;41.00;;;;;;;;5029027;28;28518;-83
2024/01/11 00:06:08;;;;;;;;;56.25;42.75;;;;;;;;5030757;28;28533;-82
2024/01/11 00:08:35;;;;;;;;;65.50;45.25;;;;;;;;5026798;28;29828;-82
2024/01/11 00:11:00;;;;;;;;;55.25;45.50;;;;;;;;5024339;28;28498;-82
2024/01/11 00:13:28;;;;;;;;;54.00;41.75;;;;;;;;5027969;28;28379;-81
2024/01/11 00:15:54;;;;;;;;;56.75;43.50;;;;;;;;5027075;28;29510;-80
2024/01/11 00:18:19;;;;;;;;;57.75;45.75;;;;;;;;5031173;28;28578;-83
2024/01/11 00:20:44;;;;;;;;;56.50;44.25;;;;;;;;5035938;28;28518;-83
2024/01/11 00:23:13;;;;;;;;;59.00;44.50;;;;;;;;5043857;28;28623;-80
2024/01/11 00:25:39;;;;;;;;;56.50;44.50;;;;;;;;5026980;28;28443;-79
2024/01/11 00:28:04;;;;;;;;;58.00;46.50;;;;;;;;5036803;28;29102;-80
2024/01/11 00:30:29;;;;;;;;;57.25;43.25;;;;;;;;5031072;28;28343;-80
2024/01/11 00:32:55;;;;;;;;;49.00;40.00;;;;;;;;5027384;28;28511;-80
2024/01/11 00:35:20;;;;;;;;;44.50;39.00;;;;;;;;5030876;28;28654;-80
2024/01/11 00:37:47;;;;;;;;;60.00;44.25;;;;;;;;5029481;28;28528;-80
2024/01/11 00:40:12;;;;;;;;;59.50;44.50;;;;;;;;5021981;28;28513;-81
2024/01/11 00:42:37;;;;;;;;;61.50;47.00;;;;;;;;5021419;28;29090;-79
2024/01/11 00:45:03;;;;;;;;;59.25;42.75;;;;;;;;5017747;28;28609;-80
2024/01/11 00:47:28;;;;;;;;;63.00;45.25;;;;;;;;4998845;28;30159;-79
2024/01/11 00:49:53;;;;;;;;;66.00;47.25;;;;;;;;5029537;28;28882;-79
2024/01/11 00:52:19;;;;;;;;;60.00;45.00;;;;;;;;5027249;28;28753;-79
2024/01/11 00:54:44;;;;;;;;;56.75;42.25;;;;;;;;5024801;28;29518;-79
2024/01/11 00:57:09;;;;;;;;;59.00;46.50;;;;;;;;5019096;28;28764;-78
2024/01/11 00:59:34;;;;;;;;;53.50;43.75;;;;;;;;5022440;28;28382;-78
2024/01/11 01:02:00;;;;;;;;;63.25;45.75;;;;;;;;5023304;28;28834;-80
2024/01/11 01:04:25;;;;;;;;;60.75;45.00;;;;;;;;5020645;28;28772;-80
2024/01/11 01:06:50;;;;;;;;;65.50;49.25;;;;;;;;5025411;28;29129;-80
2024/01/11 01:09:15;;;;;;;;;57.25;46.50;;;;;;;;5034182;28;28602;-79
2024/01/11 01:11:41;;;;;;;;;55.50;45.75;;;;;;;;5021614;28;28513;-78
2024/01/11 01:14:06;;;;;;;;;59.75;46.25;;;;;;;;5022728;28;29245;-79
2024/01/11 01:16:31;;;;;;;;;57.00;45.50;;;;;;;;5021822;28;29907;-80
2024/01/11 01:18:56;;;;;;;;;59.25;43.25;;;;;;;;5028846;28;28586;-80
2024/01/11 01:21:22;;;;;;;;;61.00;47.25;;;;;;;;5027993;28;28502;-78
2024/01/11 01:23:47;;;;;;;;;55.50;43.00;;;;;;;;5020419;28;28474;-78
2024/01/11 01:26:12;;;;;;;;;51.75;42.25;;;;;;;;5022709;28;28820;-80
2024/01/11 01:28:38;;;;;;;;;54.75;42.50;;;;;;;;5020294;28;28413;-78
2024/01/11 01:31:03;;;;;;;;;57.50;44.50;;;;;;;;5019035;28;28841;-79
2024/01/11 01:33:28;;;;;;;;;53.00;40.25;;;;;;;;5028133;28;28637;-78
2024/01/11 01:35:53;;;;;;;;;67.25;49.00;;;;;;;;5028369;28;28454;-78
2024/01/11 01:38:19;;;;;;;;;54.50;43.00;;;;;;;;5026121;28;28782;-79
2024/01/11 01:40:44;;;;;;;;;51.75;40.00;;;;;;;;5016604;28;28482;-79
2024/01/11 01:43:10;;;;;;;;;55.50;43.75;;;;;;;;5016556;28;29067;-80
2024/01/11 01:45:35;;;;;;;;;59.50;45.00;;;;;;;;5024562;28;28380;-82
2024/01/11 01:48:02;;;;;;;;;48.50;36.75;;;;;;;;5021676;28;28366;-80
2024/01/11 01:50:29;;;;;;;;;61.00;45.25;;;;;;;;5025047;28;28840;-81
2024/01/11 01:52:55;;;;;;;;;55.00;42.75;;;;;;;;5026552;28;28667;-78
2024/01/11 01:55:21;;;;;;;;;57.00;43.00;;;;;;;;5028051;28;28802;-80
2024/01/11 01:57:48;;;;;;;;;57.00;42.25;;;;;;;;5026660;28;29027;-79
2024/01/11 02:00:14;;;;;;;;;52.50;42.75;;;;;;;;5027405;28;28962;-81
2024/01/11 02:02:41;;;;;;;;;53.75;43.75;;;;;;;;5018898;28;28629;-81
2024/01/11 02:05:07;;;;;;;;;58.00;42.50;;;;;;;;5026908;28;28699;-82
2024/01/11 02:07:32;;;;;;;;;56.25;40.50;;;;;;;;5031430;28;28826;-80
2024/01/11 02:09:58;;;;;;;;;51.50;40.25;;;;;;;;5029370;28;28254;-80
2024/01/11 02:12:24;;;;;;;;;56.75;44.50;;;;;;;;5032884;28;27990;-81
2024/01/11 02:14:49;;;;;;;;;55.50;44.75;;;;;;;;5031615;28;29550;-81
2024/01/11 02:17:14;;;;;;;;;62.50;45.00;;;;;;;;5031285;28;28925;-81
2024/01/11 02:19:40;;;;;;;;;61.50;44.00;;;;;;;;5029053;28;28688;-80
2024/01/11 02:22:12;;;;;;;;;62.75;44.25;;;;;;;;5022943;28;28537;-80
2024/01/11 02:24:38;;;;;;;;;51.50;40.00;;;;;;;;5028506;28;31342;-81
2024/01/11 02:27:04;;;;;;;;;57.75;43.75;;;;;;;;5026570;28;28527;-82
2024/01/11 02:29:30;;;;;;;;;60.00;44.50;;;;;;;;5024689;28;28882;-80
2024/01/11 02:31:55;;;;;;;;;51.25;41.00;;;;;;;;5023998;28;28976;-81
2024/01/11 02:34:22;;;;;;;;;56.50;43.25;;;;;;;;5022248;28;29832;-79
2024/01/11 02:36:47;;;;;;;;;64.75;49.25;;;;;;;;5029866;28;28529;-79
2024/01/11 02:39:13;;;;;;;;;59.00;46.50;;;;;;;;5027831;28;28944;-78
2024/01/11 02:41:39;;;;;;;;;53.75;44.00;;;;;;;;5023843;28;30194;-80
2024/01/11 02:44:04;;;;;;;;;64.25;48.00;;;;;;;;5029622;28;28509;-80
2024/01/11 02:46:33;;;;;;;;;63.75;48.75;;;;;;;;5028640;28;29619;-81
2024/01/11 02:48:58;;;;;;;;;63.75;43.75;;;;;;;;5028657;28;28859;-78
2024/01/11 02:51:23;;;;;;;;;60.50;45.00;;;;;;;;5023239;28;28568;-77
2024/01/11 02:53:51;;;;;;;;;60.50;42.50;;;;;;;;5030509;28;28781;-80
2024/01/11 02:56:17;;;;;;;;;65.00;46.25;;;;;;;;5029783;28;28995;-81
2024/01/11 02:58:42;;;;;;;;;52.75;41.75;;;;;;;;5028625;28;28548;-82
2024/01/11 03:01:07;;;;;;;;;60.25;43.75;;;;;;;;5029794;28;29181;-80
2024/01/11 03:03:32;;;;;;;;;61.00;46.50;;;;;;;;5030459;28;28533;-80
2024/01/11 03:05:58;;;;;;;;;60.00;44.50;;;;;;;;5029832;28;28967;-80
2024/01/11 03:08:23;;;;;;;;;52.50;42.25;;;;;;;;5025283;28;29213;-81
2024/01/11 03:10:48;;;;;;;;;54.25;39.00;;;;;;;;5022321;28;28529;-78
2024/01/11 03:13:13;;;;;;;;;55.25;44.25;;;;;;;;5027426;28;29369;-78
2024/01/11 03:15:39;;;;;;;;;55.75;41.00;;;;;;;;5009909;28;28546;-79
2024/01/11 03:18:04;;;;;;;;;59.00;43.75;;;;;;;;5020101;28;28840;-79
2024/01/11 03:20:29;;;;;;;;;56.00;45.75;;;;;;;;5027033;28;28543;-79
2024/01/11 03:22:55;;;;;;;;;63.25;45.00;;;;;;;;5025065;28;29439;-79
2024/01/11 03:25:20;;;;;;;;;60.25;43.50;;;;;;;;5027619;28;28069;-79
2024/01/11 03:27:45;;;;;;;;;54.25;40.75;;;;;;;;5029587;28;28727;-80
2024/01/11 03:30:11;;;;;;;;;59.25;44.00;;;;;;;;5022503;28;28528;-81
2024/01/11 03:32:36;;;;;;;;;55.25;42.50;;;;;;;;5028086;28;30854;-78
2024/01/11 03:35:02;;;;;;;;;63.75;47.00;;;;;;;;5032144;28;28626;-79
2024/01/11 03:37:27;;;;;;;;;49.25;41.25;;;;;;;;5026991;28;28916;-80
2024/01/11 03:39:52;;;;;;;;;57.50;44.75;;;;;;;;5033814;28;28527;-79
2024/01/11 03:42:17;;;;;;;;;61.25;44.75;;;;;;;;5032038;28;28826;-80
2024/01/11 03:44:42;;;;;;;;;63.25;48.50;;;;;;;;5028664;28;28485;-78
2024/01/11 03:47:08;;;;;;;;;60.50;46.00;;;;;;;;5032262;28;28499;-80
2024/01/11 03:49:33;;;;;;;;;56.75;45.00;;;;;;;;5033525;28;28820;-79
2024/01/11 03:51:58;;;;;;;;;53.75;42.25;;;;;;;;5031472;28;29452;-79
2024/01/11 03:54:25;;;;;;;;;55.25;42.25;;;;;;;;5033282;28;28850;-81
2024/01/11 03:56:50;;;;;;;;;50.00;38.00;;;;;;;;5032389;28;28654;-80
2024/01/11 03:59:16;;;;;;;;;55.75;43.50;;;;;;;;5031282;28;28605;-80
2024/01/11 04:01:42;;;;;;;;;49.50;40.75;;;;;;;;5030296;28;29867;-79
2024/01/11 04:04:07;;;;;;;;;57.25;43.00;;;;;;;;5034452;28;28528;-80
2024/01/11 04:06:33;;;;;;;;;58.75;46.25;;;;;;;;5033511;28;28498;-80
2024/01/11 04:08:58;;;;;;;;;56.25;41.50;;;;;;;;5027664;28;28746;-80
2024/01/11 04:11:27;;;;;;;;;57.75;43.00;;;;;;;;5030780;28;28461;-80
2024/01/11 04:13:52;;;;;;;;;55.25;41.75;;;;;;;;5035007;28;28378;-78
2024/01/11 04:16:18;;;;;;;;;55.50;43.50;;;;;;;;5033372;28;28731;-81
2024/01/11 04:18:43;;;;;;;;;57.00;42.50;;;;;;;;5032527;28;29299;-79
2024/01/11 04:21:19;;;;;;;;;45.75;39.25;;;;;;;;5033481;28;28643;-79
2024/01/11 04:23:44;;;;;;;;;61.00;43.25;;;;;;;;5048425;28;28491;-79
2024/01/11 04:26:09;;;;;;;;;55.25;43.50;;;;;;;;5048533;28;29283;-79
2024/01/11 04:28:36;;;;;;;;;52.75;44.50;;;;;;;;5048083;28;28599;-79
2024/01/11 04:31:02;;;;;;;;;55.50;44.00;;;;;;;;5048455;28;28731;-78
2024/01/11 04:33:27;;;;;;;;;56.00;44.25;;;;;;;;5041217;28;27852;-79
2024/01/11 04:35:52;;;;;;;;;61.75;44.25;;;;;;;;5046379;28;27930;-78
2024/01/11 04:38:17;;;;;;;;;55.75;40.75;;;;;;;;5039891;28;29424;-77
2024/01/11 04:40:43;;;;;;;;;61.25;43.25;;;;;;;;5041432;28;28598;-78
2024/01/11 04:43:08;;;;;;;;;53.00;42.25;;;;;;;;5047838;28;28497;-79
2024/01/11 04:45:34;;;;;;;;;56.50;43.50;;;;;;;;5035522;28;28486;-79
2024/01/11 04:47:59;;;;;;;;;55.00;41.00;;;;;;;;5034043;28;28467;-78
2024/01/11 04:50:24;;;;;;;;;61.50;46.25;;;;;;;;5031551;28;31341;-79
2024/01/11 04:52:50;;;;;;;;;45.25;32.75;;;;;;;;5034103;28;28459;-79
2024/01/11 04:55:15;;;;;;;;;48.50;40.00;;;;;;;;5026023;28;28602;-79
2024/01/11 04:57:40;;;;;;;;;52.50;41.75;;;;;;;;5028238;28;28642;-81
2024/01/11 05:00:06;;;;;;;;;36.25;29.50;;;;;;;;5036027;28;28474;-78
2024/01/11 05:02:31;;;;;;;;;55.50;41.00;;;;;;;;5025036;28;28493;-81
2024/01/11 05:04:56;;;;;;;;;59.50;45.25;;;;;;;;5026853;28;28896;-79
2024/01/11 05:07:21;;;;;;;;;54.50;41.25;;;;;;;;5027356;28;30479;-80
2024/01/11 05:09:47;;;;;;;;;63.50;44.50;;;;;;;;5030167;28;29139;-81
2024/01/11 05:12:12;;;;;;;;;61.50;45.75;;;;;;;;5036782;28;28556;-75
2024/01/11 05:14:37;;;;;;;;;55.75;44.00;;;;;;;;5030071;28;28317;-79
2024/01/11 05:17:02;;;;;;;;;61.75;42.00;;;;;;;;5021103;28;28482;-79
2024/01/11 05:19:28;;;;;;;;;54.00;42.50;;;;;;;;5019489;28;28856;-78
2024/01/11 05:21:53;;;;;;;;;58.25;44.25;;;;;;;;5018274;28;28834;-82
2024/01/11 05:24:18;;;;;;;;;57.50;45.50;;;;;;;;5021748;28;28926;-82
2024/01/11 05:26:44;;;;;;;;;60.50;44.00;;;;;;;;5028309;28;28574;-80
2024/01/11 05:29:09;;;;;;;;;48.00;40.75;;;;;;;;5026158;28;28571;-80
2024/01/11 05:31:34;;;;;;;;;88.25;66.00;;;;;;;;5026631;28;28591;-79
2024/01/11 05:33:59;;;;;;;;;221.00;164.67;;;;;;;;5029033;28;28802;-80
2024/01/11 05:36:25;;;;;;;;;58.00;45.00;;;;;;;;5028431;28;28513;-79
2024/01/11 05:38:50;;;;;;;;;60.25;42.25;;;;;;;;5029607;28;29477;-80
2024/01/11 05:41:15;;;;;;;;;59.00;46.75;;;;;;;;5025772;28;28704;-81
2024/01/11 05:43:42;;;;;;;;;54.25;41.25;;;;;;;;5028698;28;28440;-81
2024/01/11 05:46:09;;;;;;;;;56.50;41.50;;;;;;;;5020719;28;29080;-80
2024/01/11 05:48:34;;;;;;;;;54.25;41.75;;;;;;;;5026164;28;30175;-80
2024/01/11 05:51:00;;;;;;;;;56.75;42.00;;;;;;;;5025342;28;28781;-80
2024/01/11 05:53:27;;;;;;;;;52.25;44.50;;;;;;;;5024099;28;29559;-80
2024/01/11 05:55:52;;;;;;;;;46.50;40.00;;;;;;;;5017973;28;29265;-78
2024/01/11 05:58:17;;;;;;;;;59.75;45.00;;;;;;;;5019774;28;28898;-77
2024/01/11 06:00:43;;;;;;;;;58.00;43.00;;;;;;;;5015740;28;28426;-78
2024/01/11 06:03:08;;;;;;;;;54.00;44.25;;;;;;;;5015255;28;28466;-77
2024/01/11 06:05:33;;;;;;;;;54.00;40.00;;;;;;;;5017320;28;29809;-79
2024/01/11 06:07:59;;;;;;;;;62.50;44.75;;;;;;;;5027524;28;29610;-80
2024/01/11 06:10:24;;;;;;;;;55.25;42.50;;;;;;;;5013579;28;28912;-77
2024/01/11 06:12:50;;;;;;;;;57.50;46.00;;;;;;;;5013305;28;28636;-77
2024/01/11 06:15:15;;;;;;;;;53.75;39.00;;;;;;;;5019929;28;28622;-79
2024/01/11 06:17:40;;;;;;;;;52.00;42.50;;;;;;;;5015666;28;31438;-77
2024/01/11 06:20:06;;;;;;;;;57.75;43.50;;;;;;;;5024952;28;29955;-78
2024/01/11 06:22:31;;;;;;;;;52.75;42.50;;;;;;;;5020523;28;28314;-70
2024/01/11 06:24:57;;;;;;;;;59.25;43.00;;;;;;;;5023234;28;30434;-75
2024/01/11 06:27:22;;;;;;;;;54.75;41.25;;;;;;;;5022316;28;28526;-67
2024/01/11 06:29:47;;;;;;;;;54.75;42.00;;;;;;;;5019202;28;28810;-68
2024/01/11 06:32:12;;;;;;;;;67.50;46.50;;;;;;;;5013756;28;28657;-68
2024/01/11 06:34:38;;;;;;;;;53.25;43.00;;;;;;;;5018233;28;28770;-68
2024/01/11 06:37:03;;;;;;;;;61.00;46.00;;;;;;;;5022408;28;29286;-70
2024/01/11 06:39:29;;;;;;;;;59.25;45.00;;;;;;;;5021203;28;28627;-68
2024/01/11 06:41:55;;;;;;;;;56.25;41.75;;;;;;;;5022902;28;28432;-70
2024/01/11 06:44:20;;;;;;;;;58.75;42.50;;;;;;;;5016927;28;28526;-70
2024/01/11 06:46:45;;;;;;;;;53.50;40.50;;;;;;;;5027227;28;28989;-70
2024/01/11 06:49:11;;;;;;;;;55.75;43.75;;;;;;;;5022474;28;28880;-71
2024/01/11 06:51:36;;;;;;;;;51.75;39.25;;;;;;;;5017542;28;28751;-70
2024/01/11 06:54:02;;;;;;;;;57.00;41.75;;;;;;;;5025286;28;28553;-69
2024/01/11 06:56:27;;;;;;;;;57.75;46.25;;;;;;;;5027127;28;29064;-72
2024/01/11 06:58:54;;;;;;;;;58.25;44.75;;;;;;;;5026793;28;28628;-72
2024/01/11 07:01:19;;;;;;;;;55.00;41.50;;;;;;;;5023185;28;28414;-71
2024/01/11 07:03:44;;;;;;;;;53.75;41.25;;;;;;;;5021467;28;29712;-70
2024/01/11 07:06:10;;;;;;;;;55.75;42.50;;;;;;;;5018050;28;28576;-70
2024/01/11 07:08:35;;;;;;;;;55.50;41.50;;;;;;;;5029222;28;29514;-71
2024/01/11 07:11:02;;;;;;;;;59.25;44.75;;;;;;;;5031121;28;28758;-74
2024/01/11 07:13:27;;;;;;;;;55.75;44.00;;;;;;;;5020689;28;28556;-72
2024/01/11 07:15:55;;;;;;;;;51.25;38.00;;;;;;;;5024226;28;28752;-73
2024/01/11 07:18:20;;;;;;;;;55.25;41.50;;;;;;;;5025014;28;28799;-68
2024/01/11 07:20:46;;;;;;;;;52.75;39.75;;;;;;;;5030188;28;28788;-71
2024/01/11 07:23:11;;;;;;;;;60.50;44.25;;;;;;;;5024988;28;28648;-70
2024/01/11 07:25:36;;;;;;;;;49.75;39.00;;;;;;;;5023121;28;28743;-67
2024/01/11 07:28:01;;;;;;;;;54.50;42.50;;;;;;;;5026196;28;28558;-66
2024/01/11 07:30:27;;;;;;;;;45.50;38.00;;;;;;;;5020894;28;28465;-69
2024/01/11 07:32:52;;;;;;;;;53.00;38.00;;;;;;;;5023527;28;28363;-69
2024/01/11 07:35:17;;;;;;;;;49.50;39.25;;;;;;;;5020754;28;28524;-71
2024/01/11 07:37:42;;;;;;;;;55.00;42.00;;;;;;;;5022338;28;28414;-71
2024/01/11 07:40:11;;;;;;;;;59.00;45.00;;;;;;;;5022219;28;28434;-68
2024/01/11 07:42:40;;;;;;;;;39.00;34.25;;;;;;;;5024961;28;28843;-68
2024/01/11 07:45:06;;;;;;;;;51.00;40.75;;;;;;;;5030271;28;28419;-69
2024/01/11 07:47:31;;;;;;;;;52.25;39.75;;;;;;;;5016899;28;27929;-69
2024/01/11 07:49:57;;;;;;;;;51.75;38.00;;;;;;;;5032887;28;28447;-71
2024/01/11 07:52:25;;;;;;;;;51.00;42.50;;;;;;;;5026194;28;28512;-71
2024/01/11 07:54:50;;;;;;;;;56.50;44.75;;;;;;;;5026512;28;28490;-71
2024/01/11 07:57:16;;;;;;;;;54.25;42.00;;;;;;;;5026208;28;29110;-72
2024/01/11 07:59:41;;;;;;;;;49.25;40.50;;;;;;;;5019507;28;28644;-71
2024/01/11 08:02:07;;;;;;;;;58.25;44.50;;;;;;;;5020967;28;29666;-68
2024/01/11 08:04:32;;;;;;;;;53.50;43.00;;;;;;;;5019335;28;29009;-69
2024/01/11 08:07:01;;;;;;;;;51.25;40.50;;;;;;;;5025482;28;28549;-68
2024/01/11 08:09:27;;;;;;;;;56.00;42.50;;;;;;;;5036225;28;28758;-70
2024/01/11 08:11:54;;;;;;;;;61.75;42.50;;;;;;;;5019187;28;29367;-69
2024/01/11 08:14:19;;;;;;;;;57.50;42.00;;;;;;;;5023437;28;28866;-69
2024/01/11 08:16:44;;;;;;;;;59.50;40.75;;;;;;;;5019742;28;28670;-71
2024/01/11 08:19:10;;;;;;;;;58.50;42.25;;;;;;;;5026526;28;28519;-70
2024/01/11 08:21:35;;;;;;;;;56.25;40.50;;;;;;;;5026536;28;28789;-68
2024/01/11 08:24:02;;;;;;;;;51.75;43.50;;;;;;;;5025382;28;28782;-69
2024/01/11 08:26:27;;;;;;;;;52.75;39.50;;;;;;;;5019497;28;28591;-70
2024/01/11 08:28:53;;;;;;;;;49.00;41.75;;;;;;;;5167945;22;29147;-78
2024/01/11 08:31:18;;;;;;;;;55.25;43.50;;;;;;;;5026736;28;28532;-77
2024/01/11 08:33:44;;;;;;;;;54.50;39.75;;;;;;;;5029509;28;28788;-78
2024/01/11 08:36:10;;;;;;;;;58.50;41.00;;;;;;;;5037166;28;29088;-78
2024/01/11 08:38:35;;;;;;;;;48.00;38.00;;;;;;;;5038280;28;28943;-78
2024/01/11 08:41:01;;;;;;;;;52.00;38.75;;;;;;;;5033704;28;28909;-76
2024/01/11 08:43:27;;;;;;;;;56.75;44.00;;;;;;;;5038357;28;29704;-77
2024/01/11 08:45:52;;;;;;;;;56.75;44.00;;;;;;;;5038945;28;28979;-77
2024/01/11 08:48:17;;;;;;;;;47.75;40.50;;;;;;;;5021890;28;28960;-78
2024/01/11 08:50:43;;;;;;;;;54.25;40.75;;;;;;;;5041820;28;28467;-77
2024/01/11 08:53:08;;;;;;;;;57.50;43.00;;;;;;;;5047672;28;28523;-78
2024/01/11 08:55:33;;;;;;;;;53.25;43.75;;;;;;;;5034779;28;28587;-79
2024/01/11 08:57:58;;;;;;;;;47.25;40.25;;;;;;;;5014580;28;28615;-77
2024/01/11 09:00:23;;;;;;;;;45.00;38.75;;;;;;;;5048913;28;28878;-79
2024/01/11 09:02:52;;;;;;;;;54.00;39.75;;;;;;;;5043253;28;28607;-77
2024/01/11 09:05:17;;;;;;;;;51.50;40.00;;;;;;;;5040984;28;29180;-79
2024/01/11 09:07:43;;;;;;;;;50.00;38.50;;;;;;;;5041041;28;29237;-78
2024/01/11 09:10:09;;;;;;;;;54.50;40.50;;;;;;;;5048109;28;29054;-79
2024/01/11 09:12:34;;;;;;;;;51.00;37.75;;;;;;;;5046458;28;29967;-79
2024/01/11 09:15:00;;;;;;;;;53.50;40.50;;;;;;;;5047086;28;28884;-78
2024/01/11 09:17:25;;;;;;;;;58.00;43.25;;;;;;;;5045935;28;29086;-77
2024/01/11 09:19:51;;;;;;;;;62.75;46.50;;;;;;;;5043728;28;28476;-78
2024/01/11 09:22:16;;;;;;;;;66.50;48.25;;;;;;;;5039462;28;28497;-78
2024/01/11 09:24:41;;;;;;;;;68.25;51.50;;;;;;;;5038339;28;28913;-79
2024/01/11 09:27:06;;;;;;;;;59.00;43.50;;;;;;;;5045447;28;28707;-78
2024/01/11 09:29:32;;;;;;;;;54.75;42.75;;;;;;;;5046501;28;29124;-77
2024/01/11 09:31:58;;;;;;;;;54.25;40.75;;;;;;;;5034409;28;28758;-77
2024/01/11 09:34:23;;;;;;;;;51.00;40.00;;;;;;;;5033503;28;28827;-77
2024/01/11 09:36:49;;;;;;;;;54.25;42.00;;;;;;;;5040588;28;28492;-76
2024/01/11 09:39:14;;;;;;;;;51.25;40.25;;;;;;;;5035543;28;28747;-78
2024/01/11 09:41:43;;;;;;;;;51.75;41.00;;;;;;;;5038543;28;30863;-79
2024/01/11 09:44:08;;;;;;;;;48.25;39.25;;;;;;;;5047149;28;28911;-76
2024/01/11 09:46:34;;;;;;;;;45.75;37.50;;;;;;;;5047932;28;28683;-78
2024/01/11 09:49:00;;;;;;;;;52.75;38.75;;;;;;;;5046453;28;28892;-76
2024/01/11 09:51:26;;;;;;;;;49.50;41.25;;;;;;;;5046526;28;28330;-76
2024/01/11 09:53:53;;;;;;;;;49.25;39.00;;;;;;;;5041563;28;28621;-78
2024/01/11 09:56:18;;;;;;;;;56.00;42.00;;;;;;;;5045660;28;28994;-77
2024/01/11 09:58:48;;;;;;;;;46.50;37.75;;;;;;;;5044566;28;29061;-77
2024/01/11 10:01:13;;;;;;;;;49.25;39.75;;;;;;;;5034563;28;29803;-78
2024/01/11 10:03:40;;;;;;;;;47.50;39.75;;;;;;;;5034978;28;28679;-81
2024/01/11 10:06:06;;;;;;;;;49.75;38.50;;;;;;;;5030180;28;28564;-79
2024/01/11 10:08:32;;;;;;;;;45.75;38.00;;;;;;;;5039429;28;28629;-78
2024/01/11 10:10:57;;;;;;;;;47.00;38.25;;;;;;;;5031654;28;28498;-78
2024/01/11 10:13:29;;;;;;;;;48.25;39.50;;;;;;;;5034659;28;28886;-78
2024/01/11 10:16:08;;;;;;;;;49.00;38.00;;;;;;;;5035440;28;28684;-80
2024/01/11 10:18:33;;;;;;;;;60.00;43.50;;;;;;;;5034967;28;30065;-77
2024/01/11 10:20:58;;;;;;;;;54.75;41.00;;;;;;;;5040099;28;29992;-77
2024/01/11 10:23:23;;;;;;;;;48.00;39.00;;;;;;;;5042605;28;28697;-79
2024/01/11 10:25:49;;;;;;;;;49.50;40.25;;;;;;;;5039354;28;28688;-79
2024/01/11 10:28:14;;;;;;;;;47.75;37.50;;;;;;;;5030494;28;28536;-77
2024/01/11 10:30:40;;;;;;;;;54.75;42.50;;;;;;;;5025521;28;31543;-79
2024/01/11 10:33:07;;;;;;;;;52.00;39.75;;;;;;;;5035227;28;28988;-79
2024/01/11 10:35:32;;;;;;;;;50.25;38.25;;;;;;;;5034356;28;28712;-78
2024/01/11 10:37:58;;;;;;;;;52.00;42.50;;;;;;;;5025697;28;28908;-77
2024/01/11 10:40:25;;;;;;;;;50.75;41.00;;;;;;;;5036613;28;28962;-77
2024/01/11 10:42:51;;;;;;;;;50.00;40.50;;;;;;;;5033393;28;29009;-78
2024/01/11 10:45:17;;;;;;;;;50.75;40.75;;;;;;;;5021231;28;28638;-77
2024/01/11 10:47:46;;;;;;;;;50.25;41.50;;;;;;;;5030304;28;28870;-70
2024/01/11 10:50:12;;;;;;;;;61.50;45.50;;;;;;;;5030612;28;28797;-70
2024/01/11 10:52:42;;;;;;;;;52.25;39.50;;;;;;;;5031385;28;28591;-70
2024/01/11 10:55:08;;;;;;;;;54.50;43.00;;;;;;;;5036433;28;28688;-71
2024/01/11 10:57:33;;;;;;;;;53.00;40.00;;;;;;;;5034919;28;28448;-77
2024/01/11 11:00:03;;;;;;;;;59.00;43.75;;;;;;;;5038901;28;28448;-78
2024/01/11 11:02:29;;;;;;;;;58.25;44.25;;;;;;;;5040103;28;28441;-78
2024/01/11 11:04:55;;;;;;;;;53.75;44.00;;;;;;;;5033986;28;28457;-76
2024/01/11 11:07:21;;;;;;;;;60.50;45.75;;;;;;;;5045069;28;30513;-77
2024/01/11 11:09:49;;;;;;;;;53.25;44.25;;;;;;;;5028914;28;28905;-70
2024/01/11 11:12:15;;;;;;;;;58.25;44.00;;;;;;;;5033432;28;28553;-77
2024/01/11 11:14:41;;;;;;;;;58.25;45.75;;;;;;;;5035040;28;28393;-77
2024/01/11 11:17:06;;;;;;;;;52.75;42.75;;;;;;;;5023711;28;28752;-71
2024/01/11 11:19:32;;;;;;;;;58.00;42.50;;;;;;;;5026884;28;28498;-77
2024/01/11 11:21:57;;;;;;;;;65.25;46.75;;;;;;;;5032010;28;28604;-76
2024/01/11 11:24:22;;;;;;;;;51.75;42.00;;;;;;;;5030928;28;28564;-76
2024/01/11 11:26:48;;;;;;;;;57.75;45.50;;;;;;;;5041694;28;28535;-71
2024/01/11 11:29:14;;;;;;;;;56.75;43.25;;;;;;;;5016434;28;28828;-72
2024/01/11 11:31:45;;;;;;;;;56.50;43.25;;;;;;;;5027669;28;28730;-69
2024/01/11 11:34:11;;;;;;;;;61.75;47.00;;;;;;;;5027649;28;28867;-67
2024/01/11 11:36:36;;;;;;;;;51.25;39.25;;;;;;;;5030631;28;28553;-68
2024/01/11 11:39:02;;;;;;;;;59.25;45.50;;;;;;;;5029967;28;28775;-68
2024/01/11 11:41:30;;;;;;;;;59.75;47.50;;;;;;;;5031344;28;28675;-68
2024/01/11 11:44:00;;;;;;;;;62.75;47.00;;;;;;;;5028843;28;28619;-67
2024/01/11 11:46:25;;;;;;;;;54.00;40.00;;;;;;;;5029953;28;28797;-68
2024/01/11 11:48:51;;;;;;;;;63.25;46.75;;;;;;;;5031288;28;28665;-69
2024/01/11 11:51:17;;;;;;;;;65.00;51.25;;;;;;;;5038034;28;28566;-68
2024/01/11 11:53:45;;;;;;;;;63.25;46.25;;;;;;;;5035688;28;28880;-67
2024/01/11 11:56:12;;;;;;;;;58.75;45.00;;;;;;;;5039619;28;28982;-65
2024/01/11 11:58:37;;;;;;;;;56.25;44.00;;;;;;;;5047298;28;28512;-68
2024/01/11 12:01:03;;;;;;;;;51.75;39.25;;;;;;;;5047118;28;28382;-71
2024/01/11 12:03:32;;;;;;;;;61.50;47.00;;;;;;;;5035240;28;28390;-70
2024/01/11 12:05:58;;;;;;;;;57.00;45.25;;;;;;;;5041130;28;29740;-69
2024/01/11 12:08:24;;;;;;;;;51.75;40.00;;;;;;;;5044799;28;29138;-73
2024/01/11 12:10:49;;;;;;;;;42.75;37.75;;;;;;;;5029222;28;28548;-74
2024/01/11 12:13:15;;;;;;;;;59.00;45.25;;;;;;;;5029859;28;28583;-74
2024/01/11 12:15:40;;;;;;;;;69.25;50.00;;;;;;;;5029607;28;28640;-69
2024/01/11 12:18:06;;;;;;;;;56.75;39.00;;;;;;;;5031495;28;28799;-67
2024/01/11 12:20:32;;;;;;;;;56.75;44.75;;;;;;;;5043764;28;28821;-69
2024/01/11 12:22:58;;;;;;;;;59.75;45.00;;;;;;;;5030489;28;28569;-71
2024/01/11 12:25:23;;;;;;;;;57.75;42.25;;;;;;;;5044915;28;28555;-69
2024/01/11 12:27:48;;;;;;;;;61.00;47.25;;;;;;;;5043416;28;28850;-68
2024/01/11 12:30:16;;;;;;;;;60.75;47.00;;;;;;;;5038855;28;28493;-69
2024/01/11 12:32:42;;;;;;;;;70.25;49.50;;;;;;;;5040919;28;29074;-69
2024/01/11 12:35:08;;;;;;;;;61.75;47.00;;;;;;;;5046480;28;28568;-75
2024/01/11 12:37:33;;;;;;;;;61.00;43.50;;;;;;;;5039685;28;28477;-67
2024/01/11 12:40:01;;;;;;;;;58.75;48.00;;;;;;;;5036848;28;28945;-69
2024/01/11 12:42:27;;;;;;;;;62.25;47.25;;;;;;;;5046704;28;28623;-67
2024/01/11 12:44:52;;;;;;;;;59.50;46.75;;;;;;;;5029624;28;28494;-73
2024/01/11 12:47:18;;;;;;;;;57.50;45.00;;;;;;;;5040424;28;28583;-72
2024/01/11 12:49:46;;;;;;;;;58.75;43.75;;;;;;;;5029588;28;28818;-70
2024/01/11 12:52:20;;;;;;;;;55.00;43.25;;;;;;;;5052518;28;28911;-71
2024/01/11 12:54:46;;;;;;;;;59.75;46.50;;;;;;;;5042420;28;28459;-70
2024/01/11 12:57:12;;;;;;;;;60.50;49.25;;;;;;;;5044586;28;30948;-73
2024/01/11 12:59:39;;;;;;;;;56.25;45.25;;;;;;;;5026099;28;28580;-72
2024/01/11 13:02:05;;;;;;;;;59.25;45.00;;;;;;;;5043467;28;28521;-73
2024/01/11 13:04:30;;;;;;;;;62.00;45.00;;;;;;;;5031797;28;29463;-72
2024/01/11 13:06:55;;;;;;;;;63.75;41.75;;;;;;;;5028531;28;29315;-72
2024/01/11 13:09:20;;;;;;;;;58.75;46.25;;;;;;;;5027423;28;28555;-71
2024/01/11 13:11:46;;;;;;;;;61.00;44.25;;;;;;;;5028577;28;28532;-72
2024/01/11 13:14:18;;;;;;;;;60.75;46.00;;;;;;;;5030358;28;29335;-73
2024/01/11 13:16:43;;;;;;;;;58.50;42.25;;;;;;;;5035244;28;29710;-72
2024/01/11 13:19:10;;;;;;;;;56.00;44.00;;;;;;;;5035755;28;28925;-72
2024/01/11 13:21:36;;;;;;;;;57.75;43.25;;;;;;;;5023247;28;29079;-71
2024/01/11 13:24:02;;;;;;;;;63.75;49.25;;;;;;;;5038687;28;28636;-73
2024/01/11 13:26:27;;;;;;;;;61.75;47.00;;;;;;;;5029614;28;28554;-70
2024/01/11 13:28:52;;;;;;;;;52.00;42.00;;;;;;;;5042575;28;28500;-72
2024/01/11 13:31:17;;;;;;;;;60.00;45.00;;;;;;;;5045698;28;28705;-72
2024/01/11 13:33:43;;;;;;;;;56.25;42.50;;;;;;;;5047100;28;28413;-73
2024/01/11 13:36:08;;;;;;;;;57.75;46.00;;;;;;;;5047497;28;29239;-73
2024/01/11 13:38:34;;;;;;;;;64.25;50.00;;;;;;;;5047595;28;28451;-73
2024/01/11 13:40:59;;;;;;;;;63.50;46.75;;;;;;;;5045402;28;28502;-72
2024/01/11 13:43:25;;;;;;;;;58.50;41.75;;;;;;;;5045674;28;28471;-73
2024/01/11 13:45:50;;;;;;;;;56.75;45.00;;;;;;;;5046206;28;28577;-73
2024/01/11 13:48:15;;;;;;;;;50.00;40.75;;;;;;;;5041207;28;28760;-72
2024/01/11 13:50:41;;;;;;;;;60.75;46.00;;;;;;;;5033957;28;28437;-73
2024/01/11 13:53:06;;;;;;;;;66.25;47.50;;;;;;;;5045577;28;28537;-73
2024/01/11 13:55:37;;;;;;;;;63.00;46.75;;;;;;;;5046871;28;29183;-72
2024/01/11 13:58:03;;;;;;;;;54.25;41.00;;;;;;;;5045634;28;28874;-73
2024/01/11 14:00:29;;;;;;;;;58.25;44.50;;;;;;;;5046056;28;28520;-73
2024/01/11 14:02:54;;;;;;;;;57.25;47.00;;;;;;;;5036947;28;30649;-74
2024/01/11 14:05:19;;;;;;;;;59.75;43.25;;;;;;;;5027147;28;29365;-73
2024/01/11 14:07:45;;;;;;;;;63.50;48.75;;;;;;;;5029632;28;28991;-72